sensor_id;sensor_type;location;lat;lon;timestamp;P1;durP1;ratioP1;P2;durP2;ratioP2
64351;SDS011;50680;52.626;-8.668;2023-11-21T09:36:40;16.73;;;2.97;;
64351;SDS011;50680;52.626;-8.668;2023-11-21T09:39:07;17.58;;;2.83;;
64351;SDS011;50680;52.626;-8.668;2023-11-21T09:41:51;15.27;;;3.53;;
64351;SDS011;50680;52.626;-8.668;2023-11-21T09:44:22;10.75;;;2.83;;
64351;SDS011;50680;52.626;-8.668;2023-11-21T09:47:01;13.65;;;2.58;;
64351;SDS011;50680;52.626;-8.668;2023-11-21T09:49:28;11.32;;;2.45;;
64351;SDS011;50680;52.626;-8.668;2023-11-21T09:52:01;6.15;;;1.92;;
64351;SDS011;50680;52.626;-8.668;2023-11-21T09:54:30;12.57;;;2.67;;
64351;SDS011;50680;52.626;-8.668;2023-11-21T09:56:59;14.73;;;2.50;;
64351;SDS011;50680;52.626;-8.668;2023-11-21T09:59:27;7.90;;;2.03;;
64351;SDS011;50680;52.626;-8.668;2023-11-21T10:01:57;9.52;;;2.20;;
64351;SDS011;50680;52.626;-8.668;2023-11-21T10:04:25;13.10;;;2.15;;
64351;SDS011;50680;52.626;-8.668;2023-11-21T10:06:53;9.90;;;2.22;;
64351;SDS011;50680;52.626;-8.668;2023-11-21T10:09:21;8.63;;;2.20;;
64351;SDS011;50680;52.626;-8.668;2023-11-21T10:11:49;13.93;;;2.08;;
64351;SDS011;50680;52.626;-8.668;2023-11-21T10:14:18;10.13;;;2.25;;
64351;SDS011;50680;52.626;-8.668;2023-11-21T10:16:51;9.38;;;2.00;;
64351;SDS011;50680;52.626;-8.668;2023-11-21T10:19:19;8.18;;;2.22;;
64351;SDS011;50680;52.626;-8.668;2023-11-21T10:21:47;9.05;;;1.67;;
64351;SDS011;50680;52.626;-8.668;2023-11-21T10:24:14;12.75;;;1.80;;
64351;SDS011;50680;52.626;-8.668;2023-11-21T10:26:42;7.28;;;1.65;;
64351;SDS011;50680;52.626;-8.668;2023-11-21T10:29:19;9.07;;;1.20;;
64351;SDS011;50680;52.626;-8.668;2023-11-21T10:31:49;12.00;;;1.60;;
64351;SDS011;50680;52.626;-8.668;2023-11-21T10:34:17;8.05;;;1.33;;
64351;SDS011;50680;52.626;-8.668;2023-11-21T10:36:46;5.78;;;1.17;;
64351;SDS011;50680;52.626;-8.668;2023-11-21T10:39:16;7.63;;;1.52;;
64351;SDS011;50680;52.626;-8.668;2023-11-21T10:41:48;11.73;;;1.83;;
64351;SDS011;50680;52.626;-8.668;2023-11-21T10:44:16;7.30;;;1.02;;
64351;SDS011;50680;52.626;-8.668;2023-11-21T10:46:52;9.05;;;1.23;;
64351;SDS011;50680;52.626;-8.668;2023-11-21T10:49:23;10.00;;;1.63;;
64351;SDS011;50680;52.626;-8.668;2023-11-21T10:51:52;8.90;;;1.38;;
64351;SDS011;50680;52.626;-8.668;2023-11-21T10:54:20;10.20;;;1.60;;
64351;SDS011;50680;52.626;-8.668;2023-11-21T10:56:50;5.43;;;1.50;;
64351;SDS011;50680;52.626;-8.668;2023-11-21T10:59:23;21.38;;;2.03;;
64351;SDS011;50680;52.626;-8.668;2023-11-21T11:01:51;10.38;;;2.55;;
64351;SDS011;50680;52.626;-8.668;2023-11-21T11:04:19;8.43;;;1.95;;
64351;SDS011;50680;52.626;-8.668;2023-11-21T11:06:51;9.23;;;2.00;;
64351;SDS011;50680;52.626;-8.668;2023-11-21T11:09:20;9.75;;;1.40;;
64351;SDS011;50680;52.626;-8.668;2023-11-21T11:11:47;7.40;;;1.48;;
64351;SDS011;50680;52.626;-8.668;2023-11-21T11:14:15;7.50;;;1.50;;
64351;SDS011;50680;52.626;-8.668;2023-11-21T11:16:43;7.72;;;1.40;;
64351;SDS011;50680;52.626;-8.668;2023-11-21T11:19:10;7.65;;;1.40;;
64351;SDS011;50680;52.626;-8.668;2023-11-21T11:21:40;7.85;;;1.38;;
64351;SDS011;50680;52.626;-8.668;2023-11-21T11:24:39;10.77;;;1.60;;
64351;SDS011;50680;52.626;-8.668;2023-11-21T11:27:15;13.60;;;2.25;;
64351;SDS011;50680;52.626;-8.668;2023-11-21T11:33:20;13.32;;;1.83;;
64351;SDS011;50680;52.626;-8.668;2023-11-21T11:35:50;14.75;;;2.30;;
64351;SDS011;50680;52.626;-8.668;2023-11-21T11:38:37;6.45;;;1.35;;
64351;SDS011;50680;52.626;-8.668;2023-11-21T11:41:05;13.52;;;1.88;;
64351;SDS011;50680;52.626;-8.668;2023-11-21T11:43:33;6.70;;;1.80;;
64351;SDS011;50680;52.626;-8.668;2023-11-21T11:46:06;9.57;;;1.38;;
64351;SDS011;50680;52.626;-8.668;2023-11-21T11:48:40;13.27;;;2.15;;
64351;SDS011;50680;52.626;-8.668;2023-11-21T11:53:41;16.45;;;2.53;;
64351;SDS011;50680;52.626;-8.668;2023-11-21T11:58:45;11.90;;;2.80;;
64351;SDS011;50680;52.626;-8.668;2023-11-21T12:01:16;9.70;;;2.42;;
64351;SDS011;50680;52.626;-8.668;2023-11-21T12:04:05;11.65;;;3.00;;
64351;SDS011;50680;52.626;-8.668;2023-11-21T12:06:41;10.23;;;3.05;;
64351;SDS011;50680;52.626;-8.668;2023-11-21T12:09:21;12.75;;;4.63;;
64351;SDS011;50680;52.626;-8.668;2023-11-21T12:11:49;19.52;;;3.58;;
64351;SDS011;50680;52.626;-8.668;2023-11-21T12:14:16;12.75;;;2.63;;
64351;SDS011;50680;52.626;-8.668;2023-11-21T12:16:44;19.65;;;2.15;;
64351;SDS011;50680;52.626;-8.668;2023-11-21T12:19:12;19.48;;;2.20;;
64351;SDS011;50680;52.626;-8.668;2023-11-21T12:21:39;11.85;;;2.50;;
64351;SDS011;50680;52.626;-8.668;2023-11-21T12:24:10;19.85;;;2.15;;
64351;SDS011;50680;52.626;-8.668;2023-11-21T12:26:41;9.13;;;1.90;;
64351;SDS011;50680;52.626;-8.668;2023-11-21T12:29:09;11.48;;;2.25;;
64351;SDS011;50680;52.626;-8.668;2023-11-21T12:31:37;6.20;;;2.22;;
64351;SDS011;50680;52.626;-8.668;2023-11-21T12:34:04;8.23;;;1.92;;
64351;SDS011;50680;52.626;-8.668;2023-11-21T12:36:33;8.70;;;1.95;;
64351;SDS011;50680;52.626;-8.668;2023-11-21T12:39:01;13.15;;;2.25;;
64351;SDS011;50680;52.626;-8.668;2023-11-21T12:41:29;16.48;;;2.55;;
64351;SDS011;50680;52.626;-8.668;2023-11-21T12:43:57;8.02;;;1.55;;
64351;SDS011;50680;52.626;-8.668;2023-11-21T12:46:24;4.82;;;1.45;;
64351;SDS011;50680;52.626;-8.668;2023-11-21T12:48:55;6.57;;;1.70;;
64351;SDS011;50680;52.626;-8.668;2023-11-21T12:51:24;9.05;;;1.77;;
64351;SDS011;50680;52.626;-8.668;2023-11-21T12:53:51;8.82;;;1.58;;
64351;SDS011;50680;52.626;-8.668;2023-11-21T12:56:21;7.78;;;1.70;;
64351;SDS011;50680;52.626;-8.668;2023-11-21T12:58:50;12.48;;;2.85;;
64351;SDS011;50680;52.626;-8.668;2023-11-21T13:01:20;17.08;;;2.22;;
64351;SDS011;50680;52.626;-8.668;2023-11-21T13:03:54;9.57;;;1.67;;
64351;SDS011;50680;52.626;-8.668;2023-11-21T13:06:20;11.18;;;2.20;;
64351;SDS011;50680;52.626;-8.668;2023-11-21T13:08:51;11.90;;;2.00;;
64351;SDS011;50680;52.626;-8.668;2023-11-21T13:11:18;13.15;;;1.95;;
64351;SDS011;50680;52.626;-8.668;2023-11-21T13:13:45;8.95;;;1.92;;
64351;SDS011;50680;52.626;-8.668;2023-11-21T13:16:12;9.70;;;2.38;;
64351;SDS011;50680;52.626;-8.668;2023-11-21T13:18:39;8.43;;;1.70;;
64351;SDS011;50680;52.626;-8.668;2023-11-21T13:21:08;5.85;;;2.05;;
64351;SDS011;50680;52.626;-8.668;2023-11-21T13:23:43;10.63;;;2.00;;
64351;SDS011;50680;52.626;-8.668;2023-11-21T13:26:12;12.20;;;2.10;;
64351;SDS011;50680;52.626;-8.668;2023-11-21T13:28:41;8.40;;;2.30;;
64351;SDS011;50680;52.626;-8.668;2023-11-21T13:31:13;6.43;;;1.80;;
64351;SDS011;50680;52.626;-8.668;2023-11-21T13:33:52;12.52;;;2.25;;
64351;SDS011;50680;52.626;-8.668;2023-11-21T13:36:25;6.22;;;1.92;;
64351;SDS011;50680;52.626;-8.668;2023-11-21T13:38:57;11.30;;;2.20;;
64351;SDS011;50680;52.626;-8.668;2023-11-21T13:41:25;11.52;;;2.22;;
64351;SDS011;50680;52.626;-8.668;2023-11-21T13:43:58;9.00;;;2.13;;
64351;SDS011;50680;52.626;-8.668;2023-11-21T13:46:53;8.20;;;2.35;;
64351;SDS011;50680;52.626;-8.668;2023-11-21T13:49:23;7.90;;;2.30;;
64351;SDS011;50680;52.626;-8.668;2023-11-21T13:51:51;9.75;;;3.05;;
64351;SDS011;50680;52.626;-8.668;2023-11-21T13:54:21;10.35;;;2.35;;
64351;SDS011;50680;52.626;-8.668;2023-11-21T13:56:50;10.43;;;2.25;;
64351;SDS011;50680;52.626;-8.668;2023-11-21T13:59:17;8.30;;;2.15;;
64351;SDS011;50680;52.626;-8.668;2023-11-21T14:01:54;11.38;;;2.40;;
64351;SDS011;50680;52.626;-8.668;2023-11-21T14:04:23;14.23;;;2.53;;
64351;SDS011;50680;52.626;-8.668;2023-11-21T14:06:57;16.90;;;3.00;;
64351;SDS011;50680;52.626;-8.668;2023-11-21T14:09:27;12.17;;;2.90;;
64351;SDS011;50680;52.626;-8.668;2023-11-21T14:12:02;12.68;;;2.75;;
64351;SDS011;50680;52.626;-8.668;2023-11-21T14:14:33;8.18;;;1.92;;
64351;SDS011;50680;52.626;-8.668;2023-11-21T14:17:00;11.82;;;2.30;;
64351;SDS011;50680;52.626;-8.668;2023-11-21T14:19:33;10.57;;;2.47;;
64351;SDS011;50680;52.626;-8.668;2023-11-21T14:22:03;12.77;;;2.38;;
64351;SDS011;50680;52.626;-8.668;2023-11-21T14:24:30;8.15;;;1.83;;
64351;SDS011;50680;52.626;-8.668;2023-11-21T14:26:58;11.18;;;2.25;;
64351;SDS011;50680;52.626;-8.668;2023-11-21T14:29:26;13.05;;;2.42;;
64351;SDS011;50680;52.626;-8.668;2023-11-21T14:31:54;12.75;;;2.85;;
64351;SDS011;50680;52.626;-8.668;2023-11-21T14:34:23;10.05;;;2.95;;
64351;SDS011;50680;52.626;-8.668;2023-11-21T14:36:50;9.80;;;3.00;;
64351;SDS011;50680;52.626;-8.668;2023-11-21T14:39:17;12.23;;;3.33;;
64351;SDS011;50680;52.626;-8.668;2023-11-21T14:41:53;11.43;;;3.40;;
64351;SDS011;50680;52.626;-8.668;2023-11-21T14:44:25;12.38;;;3.05;;
64351;SDS011;50680;52.626;-8.668;2023-11-21T14:46:55;15.30;;;3.58;;
64351;SDS011;50680;52.626;-8.668;2023-11-21T14:49:24;14.43;;;3.72;;
64351;SDS011;50680;52.626;-8.668;2023-11-21T14:51:54;11.25;;;3.72;;
64351;SDS011;50680;52.626;-8.668;2023-11-21T14:54:30;9.18;;;2.60;;
64351;SDS011;50680;52.626;-8.668;2023-11-21T14:57:11;7.35;;;2.45;;
64351;SDS011;50680;52.626;-8.668;2023-11-21T14:59:48;13.93;;;3.05;;
64351;SDS011;50680;52.626;-8.668;2023-11-21T15:02:19;9.48;;;2.55;;
64351;SDS011;50680;52.626;-8.668;2023-11-21T15:05:09;14.85;;;3.22;;
64351;SDS011;50680;52.626;-8.668;2023-11-21T15:07:43;7.13;;;2.53;;
64351;SDS011;50680;52.626;-8.668;2023-11-21T15:10:12;13.65;;;3.35;;
64351;SDS011;50680;52.626;-8.668;2023-11-21T15:12:42;18.00;;;3.38;;
64351;SDS011;50680;52.626;-8.668;2023-11-21T15:15:11;14.65;;;3.88;;
64351;SDS011;50680;52.626;-8.668;2023-11-21T15:17:40;13.48;;;3.50;;
64351;SDS011;50680;52.626;-8.668;2023-11-21T15:20:09;20.25;;;4.60;;
64351;SDS011;50680;52.626;-8.668;2023-11-21T15:22:39;12.13;;;4.70;;
64351;SDS011;50680;52.626;-8.668;2023-11-21T15:25:06;17.67;;;5.47;;
64351;SDS011;50680;52.626;-8.668;2023-11-21T15:27:37;11.87;;;4.77;;
64351;SDS011;50680;52.626;-8.668;2023-11-21T15:30:04;19.20;;;4.78;;
64351;SDS011;50680;52.626;-8.668;2023-11-21T15:32:33;18.00;;;4.38;;
64351;SDS011;50680;52.626;-8.668;2023-11-21T15:35:00;14.43;;;4.35;;
64351;SDS011;50680;52.626;-8.668;2023-11-21T15:37:28;14.38;;;4.03;;
64351;SDS011;50680;52.626;-8.668;2023-11-21T15:39:55;12.90;;;4.30;;
64351;SDS011;50680;52.626;-8.668;2023-11-21T15:42:22;10.07;;;3.83;;
64351;SDS011;50680;52.626;-8.668;2023-11-21T15:44:50;14.63;;;4.30;;
64351;SDS011;50680;52.626;-8.668;2023-11-21T15:47:17;11.52;;;3.63;;
64351;SDS011;50680;52.626;-8.668;2023-11-21T15:49:45;14.48;;;3.85;;
64351;SDS011;50680;52.626;-8.668;2023-11-21T15:52:16;15.95;;;4.10;;
64351;SDS011;50680;52.626;-8.668;2023-11-21T15:54:43;11.57;;;3.92;;
64351;SDS011;50680;52.626;-8.668;2023-11-21T15:57:12;12.35;;;3.67;;
64351;SDS011;50680;52.626;-8.668;2023-11-21T15:59:40;16.17;;;3.78;;
64351;SDS011;50680;52.626;-8.668;2023-11-21T16:02:09;7.93;;;3.25;;
64351;SDS011;50680;52.626;-8.668;2023-11-21T16:04:39;10.48;;;3.25;;
64351;SDS011;50680;52.626;-8.668;2023-11-21T16:07:08;16.67;;;3.80;;
64351;SDS011;50680;52.626;-8.668;2023-11-21T16:09:37;12.65;;;3.88;;
64351;SDS011;50680;52.626;-8.668;2023-11-21T16:12:05;10.27;;;3.20;;
64351;SDS011;50680;52.626;-8.668;2023-11-21T16:14:33;18.65;;;3.83;;
64351;SDS011;50680;52.626;-8.668;2023-11-21T16:17:15;10.45;;;3.38;;
64351;SDS011;50680;52.626;-8.668;2023-11-21T16:19:48;10.82;;;3.72;;
64351;SDS011;50680;52.626;-8.668;2023-11-21T16:22:15;13.57;;;4.43;;
64351;SDS011;50680;52.626;-8.668;2023-11-21T16:24:42;11.77;;;3.88;;
64351;SDS011;50680;52.626;-8.668;2023-11-21T16:27:09;13.73;;;3.80;;
64351;SDS011;50680;52.626;-8.668;2023-11-21T16:29:37;7.70;;;3.38;;
64351;SDS011;50680;52.626;-8.668;2023-11-21T16:32:05;14.65;;;3.30;;
64351;SDS011;50680;52.626;-8.668;2023-11-21T16:34:33;13.23;;;3.00;;
64351;SDS011;50680;52.626;-8.668;2023-11-21T16:37:02;12.90;;;3.05;;
64351;SDS011;50680;52.626;-8.668;2023-11-21T16:39:30;8.35;;;2.85;;
64351;SDS011;50680;52.626;-8.668;2023-11-21T16:41:57;9.85;;;3.15;;
64351;SDS011;50680;52.626;-8.668;2023-11-21T16:44:24;10.18;;;3.50;;
64351;SDS011;50680;52.626;-8.668;2023-11-21T16:46:51;15.45;;;4.30;;
64351;SDS011;50680;52.626;-8.668;2023-11-21T16:49:31;10.95;;;3.85;;
64351;SDS011;50680;52.626;-8.668;2023-11-21T16:52:03;9.23;;;3.95;;
64351;SDS011;50680;52.626;-8.668;2023-11-21T16:54:30;13.30;;;3.53;;
64351;SDS011;50680;52.626;-8.668;2023-11-21T16:56:57;15.98;;;4.45;;
64351;SDS011;50680;52.626;-8.668;2023-11-21T16:59:24;12.70;;;4.68;;
64351;SDS011;50680;52.626;-8.668;2023-11-21T17:01:51;12.57;;;5.68;;
64351;SDS011;50680;52.626;-8.668;2023-11-21T17:04:18;13.68;;;5.90;;
64351;SDS011;50680;52.626;-8.668;2023-11-21T17:06:46;21.10;;;5.03;;
64351;SDS011;50680;52.626;-8.668;2023-11-21T17:09:16;13.95;;;4.68;;
64351;SDS011;50680;52.626;-8.668;2023-11-21T17:11:49;14.65;;;4.72;;
64351;SDS011;50680;52.626;-8.668;2023-11-21T17:14:17;28.83;;;5.47;;
64351;SDS011;50680;52.626;-8.668;2023-11-21T17:16:46;20.13;;;5.70;;
64351;SDS011;50680;52.626;-8.668;2023-11-21T17:19:16;22.70;;;4.88;;
64351;SDS011;50680;52.626;-8.668;2023-11-21T17:21:44;21.75;;;4.68;;
64351;SDS011;50680;52.626;-8.668;2023-11-21T17:24:12;18.63;;;4.88;;
64351;SDS011;50680;52.626;-8.668;2023-11-21T17:26:45;16.13;;;4.97;;
64351;SDS011;50680;52.626;-8.668;2023-11-21T17:29:12;12.07;;;4.60;;
64351;SDS011;50680;52.626;-8.668;2023-11-21T17:31:40;16.30;;;5.05;;
64351;SDS011;50680;52.626;-8.668;2023-11-21T17:34:07;20.48;;;4.95;;
64351;SDS011;50680;52.626;-8.668;2023-11-21T17:36:34;19.95;;;5.13;;
64351;SDS011;50680;52.626;-8.668;2023-11-21T17:39:01;16.58;;;5.45;;
64351;SDS011;50680;52.626;-8.668;2023-11-21T17:41:29;18.88;;;6.00;;
64351;SDS011;50680;52.626;-8.668;2023-11-21T17:43:56;17.13;;;5.82;;
64351;SDS011;50680;52.626;-8.668;2023-11-21T17:46:23;18.48;;;6.60;;
64351;SDS011;50680;52.626;-8.668;2023-11-21T17:48:50;16.48;;;6.20;;
64351;SDS011;50680;52.626;-8.668;2023-11-21T17:51:20;19.75;;;6.28;;
64351;SDS011;50680;52.626;-8.668;2023-11-21T17:53:47;22.60;;;6.63;;
64351;SDS011;50680;52.626;-8.668;2023-11-21T17:56:16;22.42;;;9.10;;
64351;SDS011;50680;52.626;-8.668;2023-11-21T17:58:44;21.65;;;9.82;;
64351;SDS011;50680;52.626;-8.668;2023-11-21T18:01:12;18.20;;;8.18;;
64351;SDS011;50680;52.626;-8.668;2023-11-21T18:03:39;22.35;;;6.82;;
64351;SDS011;50680;52.626;-8.668;2023-11-21T18:06:07;19.23;;;8.02;;
64351;SDS011;50680;52.626;-8.668;2023-11-21T18:08:37;27.85;;;8.32;;
64351;SDS011;50680;52.626;-8.668;2023-11-21T18:11:06;19.75;;;7.68;;
64351;SDS011;50680;52.626;-8.668;2023-11-21T18:13:33;23.70;;;7.22;;
64351;SDS011;50680;52.626;-8.668;2023-11-21T18:15:59;20.45;;;6.03;;
64351;SDS011;50680;52.626;-8.668;2023-11-21T18:18:27;25.40;;;7.78;;
64351;SDS011;50680;52.626;-8.668;2023-11-21T18:20:54;21.10;;;6.90;;
64351;SDS011;50680;52.626;-8.668;2023-11-21T18:23:21;15.45;;;6.95;;
64351;SDS011;50680;52.626;-8.668;2023-11-21T18:25:48;14.90;;;5.95;;
64351;SDS011;50680;52.626;-8.668;2023-11-21T18:28:14;19.00;;;6.15;;
64351;SDS011;50680;52.626;-8.668;2023-11-21T18:30:41;16.83;;;6.28;;
64351;SDS011;50680;52.626;-8.668;2023-11-21T18:33:09;12.57;;;5.25;;
64351;SDS011;50680;52.626;-8.668;2023-11-21T18:35:37;12.25;;;4.65;;
64351;SDS011;50680;52.626;-8.668;2023-11-21T18:38:03;12.63;;;4.57;;
64351;SDS011;50680;52.626;-8.668;2023-11-21T18:40:30;14.02;;;4.72;;
64351;SDS011;50680;52.626;-8.668;2023-11-21T18:42:57;14.60;;;5.00;;
64351;SDS011;50680;52.626;-8.668;2023-11-21T18:45:24;13.77;;;5.40;;
64351;SDS011;50680;52.626;-8.668;2023-11-21T18:47:51;9.07;;;4.93;;
64351;SDS011;50680;52.626;-8.668;2023-11-21T18:50:18;13.98;;;5.85;;
64351;SDS011;50680;52.626;-8.668;2023-11-21T18:52:47;16.95;;;5.88;;
64351;SDS011;50680;52.626;-8.668;2023-11-21T18:55:16;13.93;;;5.57;;
64351;SDS011;50680;52.626;-8.668;2023-11-21T18:57:43;22.02;;;6.68;;
64351;SDS011;50680;52.626;-8.668;2023-11-21T19:00:10;14.80;;;5.80;;
64351;SDS011;50680;52.626;-8.668;2023-11-21T19:02:39;17.90;;;6.15;;
64351;SDS011;50680;52.626;-8.668;2023-11-21T19:05:07;19.42;;;6.75;;
64351;SDS011;50680;52.626;-8.668;2023-11-21T19:07:35;15.95;;;7.15;;
64351;SDS011;50680;52.626;-8.668;2023-11-21T19:10:03;21.48;;;7.47;;
64351;SDS011;50680;52.626;-8.668;2023-11-21T19:12:37;13.90;;;7.30;;
64351;SDS011;50680;52.626;-8.668;2023-11-21T19:15:07;16.23;;;7.47;;
64351;SDS011;50680;52.626;-8.668;2023-11-21T19:17:35;18.13;;;7.53;;
64351;SDS011;50680;52.626;-8.668;2023-11-21T19:20:02;21.20;;;7.38;;
64351;SDS011;50680;52.626;-8.668;2023-11-21T19:22:30;17.45;;;8.27;;
64351;SDS011;50680;52.626;-8.668;2023-11-21T19:24:57;22.67;;;9.23;;
64351;SDS011;50680;52.626;-8.668;2023-11-21T19:27:23;21.95;;;9.02;;
64351;SDS011;50680;52.626;-8.668;2023-11-21T19:29:50;18.85;;;9.32;;
64351;SDS011;50680;52.626;-8.668;2023-11-21T19:32:17;23.83;;;9.80;;
64351;SDS011;50680;52.626;-8.668;2023-11-21T19:34:44;16.42;;;8.63;;
64351;SDS011;50680;52.626;-8.668;2023-11-21T19:37:11;21.83;;;8.27;;
64351;SDS011;50680;52.626;-8.668;2023-11-21T19:39:38;25.73;;;9.45;;
64351;SDS011;50680;52.626;-8.668;2023-11-21T19:42:05;27.30;;;9.52;;
64351;SDS011;50680;52.626;-8.668;2023-11-21T19:44:32;27.20;;;9.70;;
64351;SDS011;50680;52.626;-8.668;2023-11-21T19:46:59;28.88;;;10.35;;
64351;SDS011;50680;52.626;-8.668;2023-11-21T19:49:26;17.77;;;9.40;;
64351;SDS011;50680;52.626;-8.668;2023-11-21T19:51:53;21.83;;;9.93;;
64351;SDS011;50680;52.626;-8.668;2023-11-21T19:54:20;25.73;;;10.77;;
64351;SDS011;50680;52.626;-8.668;2023-11-21T19:56:47;28.15;;;11.40;;
64351;SDS011;50680;52.626;-8.668;2023-11-21T19:59:14;25.27;;;12.05;;
64351;SDS011;50680;52.626;-8.668;2023-11-21T20:01:44;23.45;;;11.57;;
64351;SDS011;50680;52.626;-8.668;2023-11-21T20:04:10;29.13;;;11.57;;
64351;SDS011;50680;52.626;-8.668;2023-11-21T20:06:39;25.77;;;12.68;;
64351;SDS011;50680;52.626;-8.668;2023-11-21T20:09:19;25.58;;;13.00;;
64351;SDS011;50680;52.626;-8.668;2023-11-21T20:11:46;20.67;;;11.55;;
64351;SDS011;50680;52.626;-8.668;2023-11-21T20:14:17;19.73;;;10.70;;
64351;SDS011;50680;52.626;-8.668;2023-11-21T20:16:44;20.55;;;10.82;;
64351;SDS011;50680;52.626;-8.668;2023-11-21T20:19:16;19.58;;;10.55;;
64351;SDS011;50680;52.626;-8.668;2023-11-21T20:21:43;19.30;;;9.63;;
64351;SDS011;50680;52.626;-8.668;2023-11-21T20:24:09;18.30;;;9.85;;
64351;SDS011;50680;52.626;-8.668;2023-11-21T20:26:39;19.23;;;9.55;;
64351;SDS011;50680;52.626;-8.668;2023-11-21T20:29:08;16.65;;;8.57;;
64351;SDS011;50680;52.626;-8.668;2023-11-21T20:31:36;16.77;;;7.80;;
64351;SDS011;50680;52.626;-8.668;2023-11-21T20:34:02;16.67;;;7.80;;
64351;SDS011;50680;52.626;-8.668;2023-11-21T20:36:31;19.00;;;7.53;;
64351;SDS011;50680;52.626;-8.668;2023-11-21T20:39:00;17.67;;;7.15;;
64351;SDS011;50680;52.626;-8.668;2023-11-21T20:41:27;14.25;;;7.07;;
64351;SDS011;50680;52.626;-8.668;2023-11-21T20:43:54;15.02;;;6.28;;
64351;SDS011;50680;52.626;-8.668;2023-11-21T20:46:22;22.50;;;6.65;;
64351;SDS011;50680;52.626;-8.668;2023-11-21T20:48:49;18.65;;;6.90;;
64351;SDS011;50680;52.626;-8.668;2023-11-21T20:51:20;11.52;;;6.00;;
64351;SDS011;50680;52.626;-8.668;2023-11-21T20:53:48;13.10;;;5.32;;
64351;SDS011;50680;52.626;-8.668;2023-11-21T20:56:15;14.10;;;6.13;;
64351;SDS011;50680;52.626;-8.668;2023-11-21T20:58:42;11.18;;;6.05;;
64351;SDS011;50680;52.626;-8.668;2023-11-21T21:01:09;14.18;;;5.55;;
64351;SDS011;50680;52.626;-8.668;2023-11-21T21:03:36;14.98;;;4.40;;
64351;SDS011;50680;52.626;-8.668;2023-11-21T21:06:03;11.13;;;4.97;;
64351;SDS011;50680;52.626;-8.668;2023-11-21T21:08:33;16.67;;;4.30;;
64351;SDS011;50680;52.626;-8.668;2023-11-21T21:11:00;10.77;;;4.57;;
64351;SDS011;50680;52.626;-8.668;2023-11-21T21:13:27;12.93;;;4.13;;
64351;SDS011;50680;52.626;-8.668;2023-11-21T21:15:54;10.07;;;4.53;;
64351;SDS011;50680;52.626;-8.668;2023-11-21T21:18:21;11.98;;;4.57;;
64351;SDS011;50680;52.626;-8.668;2023-11-21T21:20:52;11.20;;;4.50;;
64351;SDS011;50680;52.626;-8.668;2023-11-21T21:23:21;9.35;;;5.03;;
64351;SDS011;50680;52.626;-8.668;2023-11-21T21:25:48;11.13;;;4.53;;
64351;SDS011;50680;52.626;-8.668;2023-11-21T21:28:17;7.38;;;4.78;;
64351;SDS011;50680;52.626;-8.668;2023-11-21T21:30:44;18.35;;;4.40;;
64351;SDS011;50680;52.626;-8.668;2023-11-21T21:33:11;10.98;;;4.25;;
64351;SDS011;50680;52.626;-8.668;2023-11-21T21:35:38;13.43;;;4.50;;
64351;SDS011;50680;52.626;-8.668;2023-11-21T21:38:05;13.55;;;4.80;;
64351;SDS011;50680;52.626;-8.668;2023-11-21T21:40:32;8.27;;;4.00;;
64351;SDS011;50680;52.626;-8.668;2023-11-21T21:42:59;7.97;;;4.10;;
64351;SDS011;50680;52.626;-8.668;2023-11-21T21:45:27;13.70;;;4.35;;
64351;SDS011;50680;52.626;-8.668;2023-11-21T21:47:54;14.00;;;4.68;;
64351;SDS011;50680;52.626;-8.668;2023-11-21T21:50:21;8.40;;;4.45;;
64351;SDS011;50680;52.626;-8.668;2023-11-21T21:52:51;9.38;;;4.25;;
64351;SDS011;50680;52.626;-8.668;2023-11-21T21:55:24;6.50;;;3.55;;
64351;SDS011;50680;52.626;-8.668;2023-11-21T21:57:53;6.72;;;3.53;;
64351;SDS011;50680;52.626;-8.668;2023-11-21T22:00:20;8.75;;;3.38;;
64351;SDS011;50680;52.626;-8.668;2023-11-21T22:02:50;9.07;;;3.53;;
64351;SDS011;50680;52.626;-8.668;2023-11-21T22:05:17;11.68;;;3.53;;
64351;SDS011;50680;52.626;-8.668;2023-11-21T22:07:44;9.82;;;3.40;;
64351;SDS011;50680;52.626;-8.668;2023-11-21T22:10:11;9.98;;;3.20;;
64351;SDS011;50680;52.626;-8.668;2023-11-21T22:12:38;8.20;;;3.45;;
64351;SDS011;50680;52.626;-8.668;2023-11-21T22:15:05;7.13;;;2.95;;
64351;SDS011;50680;52.626;-8.668;2023-11-21T22:17:32;12.02;;;3.17;;
64351;SDS011;50680;52.626;-8.668;2023-11-21T22:19:59;10.40;;;3.00;;
64351;SDS011;50680;52.626;-8.668;2023-11-21T22:22:26;7.80;;;3.20;;
64351;SDS011;50680;52.626;-8.668;2023-11-21T22:24:53;8.20;;;3.17;;
64351;SDS011;50680;52.626;-8.668;2023-11-21T22:27:20;9.93;;;3.13;;
64351;SDS011;50680;52.626;-8.668;2023-11-21T22:29:47;10.57;;;3.38;;
64351;SDS011;50680;52.626;-8.668;2023-11-21T22:32:15;8.88;;;3.15;;
64351;SDS011;50680;52.626;-8.668;2023-11-21T22:34:42;7.28;;;3.55;;
64351;SDS011;50680;52.626;-8.668;2023-11-21T22:37:09;6.63;;;2.97;;
64351;SDS011;50680;52.626;-8.668;2023-11-21T22:39:36;8.48;;;3.38;;
64351;SDS011;50680;52.626;-8.668;2023-11-21T22:42:03;13.05;;;3.45;;
64351;SDS011;50680;52.626;-8.668;2023-11-21T22:44:30;5.22;;;2.95;;
64351;SDS011;50680;52.626;-8.668;2023-11-21T22:46:57;7.22;;;3.13;;
64351;SDS011;50680;52.626;-8.668;2023-11-21T22:49:27;7.15;;;3.00;;
64351;SDS011;50680;52.626;-8.668;2023-11-21T22:51:57;12.63;;;2.83;;
64351;SDS011;50680;52.626;-8.668;2023-11-21T22:54:24;9.13;;;3.17;;
64351;SDS011;50680;52.626;-8.668;2023-11-21T22:56:51;9.38;;;3.25;;
64351;SDS011;50680;52.626;-8.668;2023-11-21T22:59:19;6.70;;;3.17;;
64351;SDS011;50680;52.626;-8.668;2023-11-21T23:01:47;8.40;;;3.42;;
64351;SDS011;50680;52.626;-8.668;2023-11-21T23:04:17;7.90;;;3.40;;
64351;SDS011;50680;52.626;-8.668;2023-11-21T23:06:47;12.13;;;3.78;;
64351;SDS011;50680;52.626;-8.668;2023-11-21T23:09:15;11.50;;;3.75;;
64351;SDS011;50680;52.626;-8.668;2023-11-21T23:11:43;11.68;;;3.28;;
64351;SDS011;50680;52.626;-8.668;2023-11-21T23:14:10;6.97;;;3.80;;
64351;SDS011;50680;52.626;-8.668;2023-11-21T23:16:37;7.18;;;3.50;;
64351;SDS011;50680;52.626;-8.668;2023-11-21T23:19:04;7.57;;;3.28;;
64351;SDS011;50680;52.626;-8.668;2023-11-21T23:21:31;18.13;;;4.20;;
64351;SDS011;50680;52.626;-8.668;2023-11-21T23:24:01;9.23;;;3.85;;
64351;SDS011;50680;52.626;-8.668;2023-11-21T23:26:36;5.32;;;3.55;;
64351;SDS011;50680;52.626;-8.668;2023-11-21T23:29:05;8.00;;;4.03;;
64351;SDS011;50680;52.626;-8.668;2023-11-21T23:31:33;6.00;;;3.80;;
64351;SDS011;50680;52.626;-8.668;2023-11-21T23:34:01;5.22;;;3.97;;
64351;SDS011;50680;52.626;-8.668;2023-11-21T23:36:29;7.85;;;3.97;;
64351;SDS011;50680;52.626;-8.668;2023-11-21T23:38:56;5.32;;;3.58;;
64351;SDS011;50680;52.626;-8.668;2023-11-21T23:41:23;7.93;;;3.75;;
64351;SDS011;50680;52.626;-8.668;2023-11-21T23:43:50;9.20;;;3.90;;
64351;SDS011;50680;52.626;-8.668;2023-11-21T23:46:17;9.02;;;3.78;;
64351;SDS011;50680;52.626;-8.668;2023-11-21T23:48:44;10.70;;;3.90;;
64351;SDS011;50680;52.626;-8.668;2023-11-21T23:51:12;7.38;;;3.70;;
64351;SDS011;50680;52.626;-8.668;2023-11-21T23:53:39;5.95;;;3.67;;
64351;SDS011;50680;52.626;-8.668;2023-11-21T23:56:07;9.75;;;4.10;;
64351;SDS011;50680;52.626;-8.668;2023-11-21T23:58:34;6.40;;;3.97;;
